Latest Weather Observations for kunanyi / Mount Wellington

IDT60901

Issued at 1:21 pm EST Friday 26 August 2016 (issued every 10 minutes, with the page automatically refreshed every 10 minutes)

About weather observations | Map of Hobart area stations | Latest observations for Hobart area | Other Formats
Station Details ID: 094087 Name: KUNANYI (MOUNT WELLINGTON PINNACLE) Lat: -42.90 Lon: 147.24 Height: 1260.47 m
Data from the previous 72 hours. | See also: Recent months at kunanyi / Mount Wellington
Date/Time
EST
Temp
°C
App
Temp
°C
Dew
Point
°C
Rel
Hum
%
Delta-T
°C
Wind Press
QNH
hPa
Press
MSL
hPa
Rain since
9am
mm
Dir  Spd
km/h
Gust
km/h
Spd
kts
Gust
kts
26/01:00pm 2.9 -6.7 1.0 87 0.8 W 41 57 22 31 - - 0.2
26/12:38pm 2.6 -5.5 0.7 87 0.8 W 33 54 18 29 - - 0.2
26/12:30pm 2.9 -6.7 1.0 87 0.8 W 41 57 22 31 - - 0.2
26/12:06pm 2.3 -6.7 0.2 86 0.8 W 37 56 20 30 - - 0.2
26/12:00pm 2.7 -5.8 0.8 87 0.8 W 35 50 19 27 - - 0.2
26/11:32am 1.7 -5.6 0.1 89 0.6 WSW 28 48 15 26 - - 0.2
26/11:30am 1.7 -5.2 0.4 91 0.5 WSW 26 37 14 20 - - 0.2
26/11:10am 1.6 -6.6 0.4 92 0.5 W 33 52 18 28 - - 0.0
26/11:00am 1.5 -7.1 0.2 91 0.5 WSW 35 48 19 26 - - 0.0
26/10:42am 1.3 -10.5 0.4 94 0.4 WSW 52 70 28 38 - - 0.0
26/10:30am 1.1 -11.6 0.5 96 0.2 WSW 57 70 31 38 - - 0.0
26/10:25am 1.0 -11.8 0.4 96 0.2 WSW 57 76 31 41 - - 0.0
26/10:00am 0.3 -14.0 -0.1 97 0.2 WSW 65 82 35 44 - - 0.0
26/09:31am -0.1 -13.7 -0.5 97 0.2 WSW 61 80 33 43 - - 0.0
26/09:30am -0.1 -13.7 -0.5 97 0.2 WSW 61 80 33 43 - - 0.0
26/09:28am -0.1 -13.4 -0.5 97 0.2 WSW 59 80 32 43 - - 0.0
26/09:00am -0.5 -14.6 -0.9 97 0.1 WSW 63 76 34 41 - - 0.0
26/08:36am -0.7 -14.0 -1.1 97 0.1 WSW 59 82 32 44 - - 0.0
26/08:30am -0.8 -13.8 -1.2 97 0.1 WSW 57 72 31 39 - - 0.0
26/08:00am -1.1 -14.1 -1.5 97 0.1 WSW 57 70 31 38 - - 0.0
26/07:30am -1.4 -14.8 -1.8 97 0.1 WSW 59 69 32 37 - - 0.0
26/07:00am -1.6 -14.7 -2.2 96 0.1 WSW 57 74 31 40 - - 0.0
26/06:30am -1.6 -14.5 -2.3 95 0.2 WSW 56 74 30 40 - - 0.0
26/06:05am -1.5 -14.4 -2.2 95 0.2 WSW 56 76 30 41 - - 0.0
26/06:00am -1.6 -14.5 -2.3 95 0.2 WSW 56 72 30 39 - - 0.0
26/05:53am -1.7 -14.3 -2.3 96 0.1 WSW 54 74 29 40 - - 0.0
26/05:30am -1.8 -14.9 -2.4 96 0.1 WSW 57 74 31 40 - - 0.0
26/05:14am -1.8 -13.6 -2.4 96 0.1 WSW 50 69 27 37 - - 0.0
26/05:00am -1.8 -14.4 -2.4 96 0.1 WSW 54 69 29 37 - - 0.0
26/04:43am -1.8 -14.4 -2.4 96 0.1 WSW 54 72 29 39 - - 0.0
26/04:30am -1.9 -14.9 -2.5 96 0.1 WSW 56 69 30 37 - - 0.0
26/04:00am -1.8 -14.9 -2.4 96 0.1 WSW 57 72 31 39 - - 0.0
26/03:30am -1.9 -16.2 -2.3 97 0.1 WSW 63 78 34 42 - - 0.0
26/03:00am -2.0 -16.3 -2.6 96 0.1 WSW 63 74 34 40 - - 0.0
26/02:30am -2.0 -15.6 -2.7 95 0.2 WSW 59 70 32 38 - - 0.0
26/02:00am -2.1 -14.3 -2.8 95 0.2 WSW 52 65 28 35 - - 0.0
26/01:39am -2.2 -14.1 -2.9 95 0.1 WSW 50 70 27 38 - - 0.0
26/01:30am -2.3 -14.6 -3.0 95 0.1 WSW 52 65 28 35 - - 0.0
26/01:00am -2.5 -13.3 -3.2 95 0.1 WSW 44 54 24 29 - - 0.0
26/12:30am -2.5 -12.7 -3.2 95 0.1 WSW 41 57 22 31 - - 0.0
26/12:28am -2.5 -12.3 -3.2 95 0.1 WSW 39 57 21 31 - - 0.0
26/12:00am -2.7 -12.9 -3.4 95 0.1 WSW 41 48 22 26 - - 0.0
 
Date/Time
EST
Temp
°C
App
Temp
°C
Dew
Point
°C
Rel
Hum
%
Delta-T
°C
Wind Press
QNH
hPa
Press
MSL
hPa
Rain since
9am
mm
Dir  Spd
km/h
Gust
km/h
Spd
kts
Gust
kts
25/11:30pm -2.7 -13.5 -3.5 94 0.2 WSW 44 57 24 31 - - 0.0
25/11:00pm -2.5 -14.8 -3.0 96 0.1 WSW 52 69 28 37 - - 0.0
25/10:30pm -2.6 -13.2 -3.3 95 0.1 WSW 43 52 23 28 - - 0.0
25/10:00pm -2.7 -13.5 -3.4 95 0.1 WSW 44 57 24 31 - - 0.0
25/09:30pm -2.6 -13.2 -3.1 96 0.1 WSW 43 52 23 28 - - 0.0
25/09:00pm -2.2 -12.9 -2.6 97 0.0 WSW 44 54 24 29 - - 0.0
25/08:30pm -2.1 -12.2 -2.5 97 0.0 WSW 41 50 22 27 - - 0.0
25/08:00pm -1.9 -9.5 -2.3 97 0.1 WSW 28 39 15 21 - - 0.0
25/07:30pm -1.9 -10.3 -2.3 97 0.1 WSW 32 39 17 21 - - 0.0
25/07:00pm -1.6 -9.9 -1.9 98 0.0 WSW 32 43 17 23 - - 0.0
25/06:30pm -1.1 -7.8 -1.4 98 0.1 WSW 24 35 13 19 - - 0.0
25/06:00pm -1.0 -7.7 -1.3 98 0.1 WSW 24 32 13 17 - - 0.0
25/05:30pm -1.0 -8.1 -1.3 98 0.1 WSW 26 33 14 18 - - 0.0
25/05:00pm -0.7 -9.1 -1.0 98 0.1 WSW 33 43 18 23 - - 0.0
25/04:30pm -0.6 -9.7 -0.9 98 0.1 WSW 37 48 20 26 - - 0.0
25/04:00pm -0.2 -7.2 -0.5 98 0.1 WSW 26 37 14 20 - - 0.0
25/03:30pm -0.1 -6.3 -0.4 98 0.1 WSW 22 32 12 17 - - 0.0
25/03:00pm 0.0 -7.3 -0.3 98 0.1 WSW 28 37 15 20 - - 0.0
25/02:30pm -0.1 -7.8 -0.4 98 0.1 SW 30 39 16 21 - - 0.0
25/02:00pm 0.0 -6.6 -0.3 98 0.1 SW 24 30 13 16 - - 0.0
25/01:30pm 0.4 -4.8 0.1 98 0.1 WSW 17 26 9 14 - - 0.0
25/01:00pm 0.4 -5.2 0.1 98 0.1 WSW 19 26 10 14 - - 0.0
25/12:30pm 0.4 -4.8 0.1 98 0.1 WSW 17 24 9 13 - - 0.0
25/12:00pm 0.0 -4.5 -0.3 98 0.1 WSW 13 20 7 11 - - 0.0
25/11:30am 0.0 -5.8 -0.3 98 0.1 SW 20 30 11 16 - - 0.0
25/11:00am -0.2 -6.1 -0.5 98 0.1 SW 20 28 11 15 - - 0.0
25/10:30am -0.2 -6.4 -0.5 98 0.1 SW 22 28 12 15 - - 0.0
25/10:00am -0.5 -6.4 -0.8 98 0.1 SW 20 26 11 14 - - 0.0
25/09:30am -0.5 -6.4 -0.8 98 0.1 SW 20 26 11 14 - - 0.0
25/09:00am -0.6 -7.3 -0.9 98 0.1 SW 24 30 13 16 - - 0.6
25/08:30am -0.8 -7.9 -1.2 97 0.1 SSW 26 30 14 16 - - 0.6
25/08:00am -1.3 -9.2 -1.7 97 0.1 SW 30 33 16 18 - - 0.6
25/07:30am -1.4 -9.3 -1.8 97 0.1 SW 30 33 16 18 - - 0.6
25/07:00am -1.7 -10.1 -2.1 97 0.1 SW 32 35 17 19 - - 0.6
25/06:30am -1.6 -10.5 -2.0 97 0.1 SW 35 39 19 21 - - 0.6
25/06:00am -1.7 -10.6 -2.1 97 0.1 SW 35 39 19 21 - - 0.6
25/05:30am -1.8 -10.4 -2.2 97 0.1 SW 33 39 18 21 - - 0.6
25/05:00am -1.9 -10.5 -2.3 97 0.1 SW 33 43 18 23 - - 0.6
25/04:30am -2.0 -9.6 -2.4 97 0.0 SW 28 32 15 17 - - 0.6
25/04:00am -2.2 -10.2 -2.6 97 0.0 SW 30 35 16 19 - - 0.6
25/03:30am -2.3 -10.9 -2.8 96 0.1 SW 33 37 18 20 - - 0.6
25/03:00am -2.3 -10.7 -2.7 97 0.0 SW 32 37 17 20 - - 0.6
25/02:30am -2.4 -10.9 -2.9 96 0.1 SW 32 37 17 20 - - 0.6
25/02:00am -2.6 -10.3 -3.1 96 0.1 SW 28 32 15 17 - - 0.6
25/01:30am -2.6 -11.1 -3.1 96 0.1 SW 32 35 17 19 - - 0.6
25/01:00am -2.6 -11.1 -3.1 96 0.1 SW 32 37 17 20 - - 0.6
25/12:30am -2.7 -9.7 -3.2 96 0.1 SSW 24 30 13 16 - - 0.6
25/12:00am -2.6 -10.3 -3.0 97 0.0 SSW 28 32 15 17 - - 0.6
 
Date/Time
EST
Temp
°C
App
Temp
°C
Dew
Point
°C
Rel
Hum
%
Delta-T
°C
Wind Press
QNH
hPa
Press
MSL
hPa
Rain since
9am
mm
Dir  Spd
km/h
Gust
km/h
Spd
kts
Gust
kts
24/11:30pm -2.5 -11.0 -2.9 97 0.0 SW 32 37 17 20 - - 0.6
24/11:00pm -2.4 -11.0 -2.8 97 0.0 SW 33 39 18 21 - - 0.6
24/10:30pm -2.4 -12.5 -2.8 97 0.0 SW 41 46 22 25 - - 0.6
24/10:00pm -2.6 -11.3 -3.0 97 0.0 SW 33 39 18 21 - - 0.6
24/09:30pm -2.6 -12.0 -3.0 97 0.0 SW 37 44 20 24 - - 0.6
24/09:00pm -2.8 -12.6 -3.3 96 0.0 WSW 39 46 21 25 - - 0.6
24/08:30pm -2.9 -12.4 -3.6 95 0.1 SW 37 43 20 23 - - 0.6
24/08:00pm -2.9 -13.5 -3.6 95 0.1 SW 43 48 23 26 - - 0.6
24/07:30pm -2.6 -12.4 -3.1 96 0.1 SW 39 48 21 26 - - 0.6
24/07:00pm -2.4 -11.0 -2.9 96 0.1 SW 33 41 18 22 - - 0.6
24/06:30pm -2.2 -10.7 -2.9 95 0.1 WSW 32 41 17 22 - - 0.6
24/06:00pm -1.9 -10.9 -2.6 95 0.2 WSW 35 43 19 23 - - 0.6
24/05:30pm -1.6 -9.2 -2.4 94 0.2 WSW 28 35 15 19 - - 0.6
24/05:00pm -1.1 -8.3 -2.2 92 0.4 WSW 26 35 14 19 - - 0.6
24/04:30pm -0.8 -7.2 -1.9 92 0.4 WSW 22 28 12 15 - - 0.6
24/04:00pm -0.1 -7.6 -1.7 89 0.6 WSW 28 33 15 18 - - 0.6
24/03:30pm -0.1 -5.9 -1.4 91 0.5 WSW 19 26 10 14 - - 0.6
24/03:00pm 0.9 -3.7 -1.2 86 0.8 W 13 20 7 11 - - 0.6
24/02:30pm 1.2 -5.5 -1.2 84 0.9 W 24 35 13 19 - - 0.6
24/02:00pm 1.0 -5.7 -1.4 84 0.9 W 24 32 13 17 - - 0.6
24/01:30pm 0.3 -6.0 -1.3 89 0.6 W 22 30 12 16 - - 0.6
24/01:00pm 0.6 -4.3 -0.5 92 0.4 W 15 22 8 12 - - 0.6
24/12:30pm 0.5 -4.5 -0.9 90 0.6 WSW 15 22 8 12 - - 0.6
24/12:00pm 0.6 -5.1 -0.5 92 0.4 WSW 19 28 10 15 - - 0.6
24/11:30am -0.4 -6.1 -1.1 95 0.2 W 19 28 10 15 - - 0.4
24/11:00am -0.6 -6.4 -1.2 96 0.2 WSW 19 28 10 15 - - 0.4
24/10:30am -0.9 -6.3 -1.3 97 0.1 WSW 17 24 9 13 - - 0.4
24/10:00am -1.0 -6.8 -1.4 97 0.1 WSW 19 24 10 13 - - 0.4
24/09:30am -1.5 -9.1 -1.9 97 0.1 WSW 28 35 15 19 - - 0.0
24/09:00am -1.6 -9.2 -2.0 97 0.1 WSW 28 37 15 20 - - 0.2
24/08:30am -1.6 -9.2 -2.0 97 0.1 WSW 28 35 15 19 - - 0.2
24/08:00am -1.6 -8.0 -2.0 97 0.1 WSW 22 30 12 16 - - 0.2
24/07:30am -1.8 -10.2 -2.2 97 0.1 WSW 32 39 17 21 - - 0.2
24/07:00am -1.9 -10.8 -2.3 97 0.1 WSW 35 43 19 23 - - 0.2
24/06:30am -2.1 -11.1 -2.5 97 0.0 WSW 35 43 19 23 - - 0.2
24/06:00am -2.1 -10.7 -2.5 97 0.0 WSW 33 43 18 23 - - 0.2
24/05:30am -2.0 -10.6 -2.4 97 0.0 WSW 33 43 18 23 - - 0.2
24/05:00am -2.1 -11.5 -2.5 97 0.0 WSW 37 46 20 25 - - 0.2
24/04:30am -1.9 -12.0 -2.3 97 0.1 WSW 41 48 22 26 - - 0.2
24/04:00am -2.0 -11.7 -2.4 97 0.0 WSW 39 48 21 26 - - 0.2
24/03:30am -1.9 -10.8 -2.3 97 0.1 WSW 35 43 19 23 - - 0.2
24/03:00am -2.0 -12.1 -2.4 97 0.0 WSW 41 48 22 26 - - 0.2
24/02:30am -1.7 -11.0 -2.1 97 0.1 WSW 37 46 20 25 - - 0.2
24/02:00am -1.9 -12.0 -2.3 97 0.1 WSW 41 54 22 29 - - 0.2
24/01:30am -1.7 -11.0 -2.1 97 0.1 WSW 37 48 20 26 - - 0.2
24/01:00am -1.6 -10.5 -2.0 97 0.1 WSW 35 46 19 25 - - 0.2
24/12:30am -1.7 -12.3 -2.1 97 0.1 WSW 44 52 24 28 - - 0.2
24/12:00am -1.8 -12.4 -2.2 97 0.1 WSW 44 56 24 30 - - 0.2
 
Date/Time
EST
Temp
°C
App
Temp
°C
Dew
Point
°C
Rel
Hum
%
Delta-T
°C
Wind Press
QNH
hPa
Press
MSL
hPa
Rain since
9am
mm
Dir  Spd
km/h
Gust
km/h
Spd
kts
Gust
kts
23/11:30pm -1.7 -12.1 -2.1 97 0.1 WSW 43 54 23 29 - - 0.2
23/11:00pm -1.8 -13.2 -2.2 97 0.1 WSW 48 63 26 34 - - 0.2
23/10:30pm -1.6 -11.6 -2.0 97 0.1 WSW 41 52 22 28 - - 0.2
23/10:00pm -1.5 -11.2 -1.9 97 0.1 WSW 39 50 21 27 - - 0.2
23/09:30pm -1.7 -11.4 -2.3 96 0.1 WSW 39 52 21 28 - - 0.2
23/09:00pm -1.6 -10.5 -2.0 97 0.1 WSW 35 46 19 25 - - 0.2
23/08:30pm -1.6 -9.6 -2.3 95 0.2 WSW 30 39 16 21 - - 0.2
23/08:00pm -1.6 -9.3 -2.7 92 0.3 WSW 28 37 15 20 - - 0.2
23/07:30pm -1.7 -10.7 -2.5 94 0.2 WSW 35 46 19 25 - - 0.2
23/07:00pm -1.6 -9.3 -2.7 92 0.3 W 28 39 15 21 - - 0.2
23/06:30pm -1.7 -9.7 -2.4 95 0.2 W 30 39 16 21 - - 0.2
23/06:00pm -1.6 -10.0 -2.2 96 0.1 W 32 44 17 24 - - 0.2
23/05:30pm -1.4 -8.2 -2.2 94 0.2 WSW 24 32 13 17 - - 0.2
23/05:00pm -1.2 -8.4 -2.2 93 0.3 WSW 26 35 14 19 - - 0.2
23/04:30pm -0.4 -6.2 -1.2 94 0.3 WSW 19 30 10 16 - - 0.2
23/04:00pm 0.2 -7.0 -2.0 85 0.8 SW 26 37 14 20 - - 0.2
23/03:30pm 1.1 -6.7 -4.1 68 1.9 WSW 28 41 15 22 - - 0.2
23/03:00pm 1.6 -4.6 -3.1 71 1.8 WSW 20 33 11 18 - - 0.2
23/02:30pm 1.3 -6.0 -2.8 74 1.6 WSW 26 35 14 19 - - 0.2
23/02:00pm 1.9 -3.0 -0.3 85 0.9 WSW 15 22 8 12 - - 0.2
23/01:30pm 1.8 -2.9 -1.8 77 1.4 W 13 22 7 12 - - 0.2

Latest Capital City Observations: Canberra | Sydney | Melbourne | Brisbane | Adelaide | Perth | Hobart | Darwin

Other Formats:

Comma delimited format used in spreadsheet applications
http://www.bom.gov.au/fwo/IDT60901/IDT60901.95979.axf

JavaScript Object Notation format (JSON) in row-major order
http://www.bom.gov.au/fwo/IDT60901/IDT60901.95979.json